sensor_id;sensor_type;location;lat;lon;timestamp;pressure;altitude;pressure_sealevel;temperature;humidity
73429;BME280;61643;49.564;17.412;2022-08-01T00:00:07;98086.88;;;14.12;77.17
73429;BME280;61643;49.564;17.412;2022-08-01T00:02:33;98075.44;;;14.20;76.49
73429;BME280;61643;49.564;17.412;2022-08-01T00:04:59;98081.13;;;14.18;75.42
73429;BME280;61643;49.564;17.412;2022-08-01T00:07:25;98084.22;;;14.07;75.76
73429;BME280;61643;49.564;17.412;2022-08-01T00:09:51;98081.88;;;13.95;76.94
73429;BME280;61643;49.564;17.412;2022-08-01T00:12:16;98079.25;;;13.85;77.57
73429;BME280;61643;49.564;17.412;2022-08-01T00:14:41;98082.72;;;13.86;77.41
73429;BME280;61643;49.564;17.412;2022-08-01T00:17:07;98083.59;;;13.81;77.28
73429;BME280;61643;49.564;17.412;2022-08-01T00:19:33;98073.59;;;13.82;77.82
73429;BME280;61643;49.564;17.412;2022-08-01T00:21:58;98069.00;;;13.77;78.00
73429;BME280;61643;49.564;17.412;2022-08-01T00:24:24;98065.75;;;13.75;77.64
73429;BME280;61643;49.564;17.412;2022-08-01T00:26:49;98071.16;;;13.80;77.85
73429;BME280;61643;49.564;17.412;2022-08-01T00:29:15;98078.19;;;13.76;77.55
73429;BME280;61643;49.564;17.412;2022-08-01T00:31:40;98075.78;;;13.74;77.88
73429;BME280;61643;49.564;17.412;2022-08-01T00:34:05;98070.91;;;13.71;78.19
73429;BME280;61643;49.564;17.412;2022-08-01T00:36:31;98073.78;;;13.46;80.29
73429;BME280;61643;49.564;17.412;2022-08-01T00:38:57;98069.69;;;13.54;78.77
73429;BME280;61643;49.564;17.412;2022-08-01T00:41:22;98065.63;;;13.56;79.26
73429;BME280;61643;49.564;17.412;2022-08-01T00:43:47;98072.44;;;13.44;79.35
73429;BME280;61643;49.564;17.412;2022-08-01T00:46:13;98069.75;;;13.39;79.40
73429;BME280;61643;49.564;17.412;2022-08-01T00:48:38;98070.25;;;13.46;78.92
73429;BME280;61643;49.564;17.412;2022-08-01T00:51:04;98070.00;;;13.42;79.49
73429;BME280;61643;49.564;17.412;2022-08-01T00:53:30;98066.78;;;13.45;79.78
73429;BME280;61643;49.564;17.412;2022-08-01T00:55:56;98072.97;;;13.46;79.39
73429;BME280;61643;49.564;17.412;2022-08-01T00:58:22;98062.13;;;13.46;79.76
73429;BME280;61643;49.564;17.412;2022-08-01T01:00:47;98061.63;;;13.39;80.21
73429;BME280;61643;49.564;17.412;2022-08-01T01:03:13;98072.50;;;13.28;80.43
73429;BME280;61643;49.564;17.412;2022-08-01T01:05:51;98070.34;;;13.30;80.62
73429;BME280;61643;49.564;17.412;2022-08-01T01:08:24;98068.16;;;13.32;81.01
73429;BME280;61643;49.564;17.412;2022-08-01T01:10:56;98069.50;;;13.40;80.65
73429;BME280;61643;49.564;17.412;2022-08-01T01:13:35;98059.53;;;13.30;81.29
73429;BME280;61643;49.564;17.412;2022-08-01T01:16:06;98063.31;;;13.29;81.44
73429;BME280;61643;49.564;17.412;2022-08-01T01:18:38;98073.31;;;13.29;81.39
73429;BME280;61643;49.564;17.412;2022-08-01T01:26:57;98067.41;;;13.17;82.58
73429;BME280;61643;49.564;17.412;2022-08-01T01:32:04;98065.22;;;13.24;82.36
73429;BME280;61643;49.564;17.412;2022-08-01T01:34:33;98064.16;;;13.25;82.84
73429;BME280;61643;49.564;17.412;2022-08-01T01:37:01;98056.59;;;13.17;82.90
73429;BME280;61643;49.564;17.412;2022-08-01T01:39:28;98060.69;;;13.14;83.16
73429;BME280;61643;49.564;17.412;2022-08-01T01:41:55;98046.91;;;13.16;83.36
73429;BME280;61643;49.564;17.412;2022-08-01T01:44:21;98046.34;;;13.19;83.66
73429;BME280;61643;49.564;17.412;2022-08-01T01:46:48;98055.53;;;13.18;83.93
73429;BME280;61643;49.564;17.412;2022-08-01T01:49:15;98046.38;;;13.09;83.47
73429;BME280;61643;49.564;17.412;2022-08-01T01:51:44;98042.06;;;13.13;83.77
73429;BME280;61643;49.564;17.412;2022-08-01T01:54:11;98047.22;;;13.09;83.66
73429;BME280;61643;49.564;17.412;2022-08-01T01:56:37;98051.19;;;13.17;83.42
73429;BME280;61643;49.564;17.412;2022-08-01T01:59:15;98052.81;;;13.23;83.19
73429;BME280;61643;49.564;17.412;2022-08-01T02:01:43;98051.75;;;13.19;83.63
73429;BME280;61643;49.564;17.412;2022-08-01T02:04:10;98043.13;;;13.12;83.50
73429;BME280;61643;49.564;17.412;2022-08-01T02:06:37;98054.22;;;13.05;83.57
73429;BME280;61643;49.564;17.412;2022-08-01T02:09:04;98048.25;;;13.03;84.27
73429;BME280;61643;49.564;17.412;2022-08-01T02:11:30;98048.00;;;13.05;83.98
73429;BME280;61643;49.564;17.412;2022-08-01T02:14:01;98056.66;;;13.02;84.37
73429;BME280;61643;49.564;17.412;2022-08-01T02:16:31;98056.94;;;13.00;84.26
73429;BME280;61643;49.564;17.412;2022-08-01T02:18:58;98053.19;;;12.91;83.90
73429;BME280;61643;49.564;17.412;2022-08-01T02:21:31;98059.69;;;12.85;84.25
73429;BME280;61643;49.564;17.412;2022-08-01T02:24:12;98053.47;;;12.84;84.41
73429;BME280;61643;49.564;17.412;2022-08-01T02:26:42;98052.13;;;12.82;84.91
73429;BME280;61643;49.564;17.412;2022-08-01T02:29:10;98051.31;;;12.81;84.47
73429;BME280;61643;49.564;17.412;2022-08-01T02:31:39;98049.97;;;12.84;84.56
73429;BME280;61643;49.564;17.412;2022-08-01T02:34:09;98051.09;;;12.68;85.35
73429;BME280;61643;49.564;17.412;2022-08-01T02:36:36;98040.81;;;12.70;85.52
73429;BME280;61643;49.564;17.412;2022-08-01T02:39:08;98048.94;;;12.65;85.49
73429;BME280;61643;49.564;17.412;2022-08-01T02:41:38;98056.50;;;12.68;85.80
73429;BME280;61643;49.564;17.412;2022-08-01T02:44:07;98049.72;;;12.70;85.78
73429;BME280;61643;49.564;17.412;2022-08-01T02:46:36;98054.56;;;12.73;85.60
73429;BME280;61643;49.564;17.412;2022-08-01T02:49:05;98050.25;;;12.82;84.93
73429;BME280;61643;49.564;17.412;2022-08-01T02:51:32;98055.41;;;12.69;85.92
73429;BME280;61643;49.564;17.412;2022-08-01T02:53:59;98046.25;;;12.65;86.57
73429;BME280;61643;49.564;17.412;2022-08-01T02:56:27;98045.66;;;12.78;85.50
73429;BME280;61643;49.564;17.412;2022-08-01T02:59:02;98054.00;;;12.81;86.22
73429;BME280;61643;49.564;17.412;2022-08-01T03:01:28;98046.44;;;12.89;86.18
73429;BME280;61643;49.564;17.412;2022-08-01T03:03:54;98051.78;;;12.99;86.20
73429;BME280;61643;49.564;17.412;2022-08-01T03:06:20;98052.03;;;13.02;85.87
73429;BME280;61643;49.564;17.412;2022-08-01T03:08:47;98043.91;;;13.17;85.52
73429;BME280;61643;49.564;17.412;2022-08-01T03:11:14;98053.88;;;13.27;85.28
73429;BME280;61643;49.564;17.412;2022-08-01T03:13:41;98057.91;;;13.29;85.25
73429;BME280;61643;49.564;17.412;2022-08-01T03:16:09;98060.09;;;13.27;85.23
73429;BME280;61643;49.564;17.412;2022-08-01T03:18:36;98049.34;;;13.12;86.03
73429;BME280;61643;49.564;17.412;2022-08-01T03:21:03;98058.47;;;13.26;85.43
73429;BME280;61643;49.564;17.412;2022-08-01T03:23:32;98057.34;;;13.32;85.51
73429;BME280;61643;49.564;17.412;2022-08-01T03:25:59;98053.03;;;13.31;85.30
73429;BME280;61643;49.564;17.412;2022-08-01T03:28:26;98053.03;;;13.31;85.67
73429;BME280;61643;49.564;17.412;2022-08-01T03:30:52;98039.81;;;13.30;86.39
73429;BME280;61643;49.564;17.412;2022-08-01T03:33:18;98038.63;;;13.46;85.63
73429;BME280;61643;49.564;17.412;2022-08-01T03:35:47;98045.03;;;13.60;85.22
73429;BME280;61643;49.564;17.412;2022-08-01T03:38:17;98046.63;;;13.66;84.98
73429;BME280;61643;49.564;17.412;2022-08-01T03:40:48;98046.56;;;13.71;85.44
73429;BME280;61643;49.564;17.412;2022-08-01T03:43:38;98044.69;;;13.72;84.79
73429;BME280;61643;49.564;17.412;2022-08-01T03:46:10;98037.66;;;13.71;84.76
73429;BME280;61643;49.564;17.412;2022-08-01T03:48:41;98043.59;;;13.78;85.03
73429;BME280;61643;49.564;17.412;2022-08-01T03:51:08;98045.63;;;13.91;85.51
73429;BME280;61643;49.564;17.412;2022-08-01T03:53:34;98039.88;;;14.03;86.23
73429;BME280;61643;49.564;17.412;2022-08-01T03:56:02;98043.91;;;14.05;85.29
73429;BME280;61643;49.564;17.412;2022-08-01T03:58:29;98048.41;;;14.15;85.38
73429;BME280;61643;49.564;17.412;2022-08-01T04:00:55;98050.75;;;14.26;85.90
73429;BME280;61643;49.564;17.412;2022-08-01T04:03:21;98056.13;;;14.32;86.30
73429;BME280;61643;49.564;17.412;2022-08-01T04:05:47;98052.31;;;14.32;85.84
73429;BME280;61643;49.564;17.412;2022-08-01T04:08:13;98054.75;;;14.39;86.94
73429;BME280;61643;49.564;17.412;2022-08-01T04:10:38;98055.81;;;14.43;87.04
73429;BME280;61643;49.564;17.412;2022-08-01T04:13:04;98062.53;;;14.46;87.25
73429;BME280;61643;49.564;17.412;2022-08-01T04:15:29;98061.75;;;14.40;88.10
73429;BME280;61643;49.564;17.412;2022-08-01T04:17:54;98053.78;;;14.20;87.04
73429;BME280;61643;49.564;17.412;2022-08-01T04:20:20;98056.72;;;14.28;87.04
73429;BME280;61643;49.564;17.412;2022-08-01T04:22:45;98063.97;;;14.38;87.19
73429;BME280;61643;49.564;17.412;2022-08-01T04:25:15;98059.59;;;14.42;87.76
73429;BME280;61643;49.564;17.412;2022-08-01T04:27:45;98062.19;;;14.52;86.85
73429;BME280;61643;49.564;17.412;2022-08-01T04:30:12;98058.91;;;14.55;87.43
73429;BME280;61643;49.564;17.412;2022-08-01T04:32:39;98063.25;;;14.56;86.73
73429;BME280;61643;49.564;17.412;2022-08-01T04:35:08;98062.22;;;14.47;87.56
73429;BME280;61643;49.564;17.412;2022-08-01T04:37:37;98063.03;;;14.48;87.36
73429;BME280;61643;49.564;17.412;2022-08-01T04:40:06;98064.06;;;14.57;86.84
73429;BME280;61643;49.564;17.412;2022-08-01T04:42:33;98064.06;;;14.57;86.09
73429;BME280;61643;49.564;17.412;2022-08-01T04:44:58;98065.59;;;14.63;86.29
73429;BME280;61643;49.564;17.412;2022-08-01T04:47:25;98068.56;;;14.66;86.25
73429;BME280;61643;49.564;17.412;2022-08-01T04:49:51;98067.69;;;14.71;86.01
73429;BME280;61643;49.564;17.412;2022-08-01T04:52:16;98065.72;;;14.76;85.93
73429;BME280;61643;49.564;17.412;2022-08-01T04:54:43;98068.91;;;14.84;85.36
73429;BME280;61643;49.564;17.412;2022-08-01T04:57:08;98072.38;;;14.89;85.11
73429;BME280;61643;49.564;17.412;2022-08-01T04:59:36;98074.75;;;14.96;86.25
73429;BME280;61643;49.564;17.412;2022-08-01T05:02:15;98081.47;;;14.98;85.53
73429;BME280;61643;49.564;17.412;2022-08-01T05:04:41;98082.25;;;15.04;85.44
73429;BME280;61643;49.564;17.412;2022-08-01T05:07:08;98086.22;;;15.11;84.70
73429;BME280;61643;49.564;17.412;2022-08-01T05:09:34;98098.34;;;15.19;84.82
73429;BME280;61643;49.564;17.412;2022-08-01T05:12:02;98090.13;;;15.24;84.98
73429;BME280;61643;49.564;17.412;2022-08-01T05:14:29;98087.97;;;15.26;84.64
73429;BME280;61643;49.564;17.412;2022-08-01T05:17:00;98093.66;;;15.24;83.59
73429;BME280;61643;49.564;17.412;2022-08-01T05:19:31;98091.97;;;15.28;84.09
73429;BME280;61643;49.564;17.412;2022-08-01T05:21:58;98091.41;;;15.32;83.84
73429;BME280;61643;49.564;17.412;2022-08-01T05:24:23;98096.00;;;15.31;84.47
73429;BME280;61643;49.564;17.412;2022-08-01T05:26:49;98098.66;;;15.36;83.89
73429;BME280;61643;49.564;17.412;2022-08-01T05:29:15;98089.38;;;15.42;84.10
73429;BME280;61643;49.564;17.412;2022-08-01T05:31:40;98092.63;;;15.44;83.47
73429;BME280;61643;49.564;17.412;2022-08-01T05:34:06;98085.75;;;15.52;83.40
73429;BME280;61643;49.564;17.412;2022-08-01T05:36:31;98083.34;;;15.45;82.83
73429;BME280;61643;49.564;17.412;2022-08-01T05:38:57;98083.19;;;15.60;81.57
73429;BME280;61643;49.564;17.412;2022-08-01T05:41:23;98076.91;;;15.65;81.62
73429;BME280;61643;49.564;17.412;2022-08-01T05:43:48;98084.00;;;15.80;81.71
73429;BME280;61643;49.564;17.412;2022-08-01T05:46:13;98091.50;;;15.88;81.39
73429;BME280;61643;49.564;17.412;2022-08-01T05:48:39;98093.31;;;15.92;80.75
73429;BME280;61643;49.564;17.412;2022-08-01T05:51:04;98088.47;;;15.89;81.49
73429;BME280;61643;49.564;17.412;2022-08-01T05:53:30;98088.69;;;15.93;81.30
73429;BME280;61643;49.564;17.412;2022-08-01T05:55:55;98094.56;;;16.00;82.03
73429;BME280;61643;49.564;17.412;2022-08-01T05:58:21;98082.22;;;16.07;80.61
73429;BME280;61643;49.564;17.412;2022-08-01T06:00:47;98084.44;;;16.05;80.41
73429;BME280;61643;49.564;17.412;2022-08-01T06:03:12;98084.22;;;16.20;80.99
73429;BME280;61643;49.564;17.412;2022-08-01T06:05:39;98087.84;;;16.30;79.83
73429;BME280;61643;49.564;17.412;2022-08-01T06:08:04;98084.72;;;16.22;79.85
73429;BME280;61643;49.564;17.412;2022-08-01T06:10:30;98085.06;;;16.35;79.91
73429;BME280;61643;49.564;17.412;2022-08-01T06:12:55;98088.00;;;16.38;80.69
73429;BME280;61643;49.564;17.412;2022-08-01T06:15:21;98089.31;;;16.41;81.18
73429;BME280;61643;49.564;17.412;2022-08-01T06:17:46;98094.94;;;16.63;80.69
73429;BME280;61643;49.564;17.412;2022-08-01T06:20:11;98093.47;;;16.84;79.89
73429;BME280;61643;49.564;17.412;2022-08-01T06:22:37;98094.47;;;17.02;78.34
73429;BME280;61643;49.564;17.412;2022-08-01T06:25:03;98101.13;;;17.23;78.31
73429;BME280;61643;49.564;17.412;2022-08-01T06:27:28;98094.09;;;17.36;76.72
73429;BME280;61643;49.564;17.412;2022-08-01T06:29:54;98086.53;;;17.46;76.83
73429;BME280;61643;49.564;17.412;2022-08-01T06:32:20;98087.00;;;17.62;76.60
73429;BME280;61643;49.564;17.412;2022-08-01T06:34:47;98096.28;;;17.75;75.48
73429;BME280;61643;49.564;17.412;2022-08-01T06:37:13;98095.75;;;17.86;74.95
73429;BME280;61643;49.564;17.412;2022-08-01T06:39:39;98094.72;;;17.96;76.52
73429;BME280;61643;49.564;17.412;2022-08-01T06:42:05;98096.63;;;17.95;77.08
73429;BME280;61643;49.564;17.412;2022-08-01T06:44:30;98080.03;;;18.05;75.54
73429;BME280;61643;49.564;17.412;2022-08-01T06:46:56;98085.69;;;18.09;75.79
73429;BME280;61643;49.564;17.412;2022-08-01T06:49:23;98081.66;;;18.06;76.52
73429;BME280;61643;49.564;17.412;2022-08-01T06:51:49;98080.03;;;18.05;75.56
73429;BME280;61643;49.564;17.412;2022-08-01T06:54:14;98091.63;;;18.11;76.18
73429;BME280;61643;49.564;17.412;2022-08-01T06:56:41;98089.78;;;18.20;75.50
73429;BME280;61643;49.564;17.412;2022-08-01T06:59:06;98092.69;;;18.24;75.75
73429;BME280;61643;49.564;17.412;2022-08-01T07:01:32;98086.84;;;18.30;75.29
73429;BME280;61643;49.564;17.412;2022-08-01T07:03:57;98084.78;;;18.36;75.50
73429;BME280;61643;49.564;17.412;2022-08-01T07:06:23;98089.13;;;18.37;75.03
73429;BME280;61643;49.564;17.412;2022-08-01T07:08:49;98086.56;;;18.40;74.66
73429;BME280;61643;49.564;17.412;2022-08-01T07:11:14;98090.78;;;18.46;74.82
73429;BME280;61643;49.564;17.412;2022-08-01T07:13:40;98091.75;;;18.50;74.30
73429;BME280;61643;49.564;17.412;2022-08-01T07:16:05;98095.81;;;18.53;74.56
73429;BME280;61643;49.564;17.412;2022-08-01T07:18:31;98100.97;;;18.54;75.76
73429;BME280;61643;49.564;17.412;2022-08-01T07:20:56;98099.69;;;18.52;74.71
73429;BME280;61643;49.564;17.412;2022-08-01T07:23:21;98102.25;;;18.57;75.13
73429;BME280;61643;49.564;17.412;2022-08-01T07:25:47;98100.63;;;18.56;75.38
73429;BME280;61643;49.564;17.412;2022-08-01T07:28:14;98102.88;;;18.54;74.29
73429;BME280;61643;49.564;17.412;2022-08-01T07:30:40;98109.00;;;18.59;74.34
73429;BME280;61643;49.564;17.412;2022-08-01T07:33:07;98107.25;;;18.63;74.06
73429;BME280;61643;49.564;17.412;2022-08-01T07:35:33;98099.78;;;18.69;74.07
73429;BME280;61643;49.564;17.412;2022-08-01T07:37:59;98096.88;;;18.65;75.12
73429;BME280;61643;49.564;17.412;2022-08-01T07:40:24;98108.13;;;18.73;74.38
73429;BME280;61643;49.564;17.412;2022-08-01T07:42:49;98110.22;;;18.76;73.90
73429;BME280;61643;49.564;17.412;2022-08-01T07:45:15;98112.66;;;18.77;74.12
73429;BME280;61643;49.564;17.412;2022-08-01T07:47:40;98115.06;;;18.79;73.83
73429;BME280;61643;49.564;17.412;2022-08-01T07:50:06;98110.13;;;18.81;73.31
73429;BME280;61643;49.564;17.412;2022-08-01T07:52:32;98100.78;;;18.82;72.42
73429;BME280;61643;49.564;17.412;2022-08-01T07:54:57;98098.25;;;18.85;74.05
73429;BME280;61643;49.564;17.412;2022-08-01T07:57:24;98095.41;;;18.90;73.44
73429;BME280;61643;49.564;17.412;2022-08-01T07:59:50;98087.88;;;18.96;73.48
73429;BME280;61643;49.564;17.412;2022-08-01T08:02:15;98095.28;;;19.04;73.47
73429;BME280;61643;49.564;17.412;2022-08-01T08:04:41;98091.97;;;19.15;73.58
73429;BME280;61643;49.564;17.412;2022-08-01T08:07:06;98090.06;;;19.25;72.72
73429;BME280;61643;49.564;17.412;2022-08-01T08:09:32;98088.81;;;19.31;72.40
73429;BME280;61643;49.564;17.412;2022-08-01T08:11:57;98099.66;;;19.44;71.63
73429;BME280;61643;49.564;17.412;2022-08-01T08:14:23;98104.16;;;19.49;72.21
73429;BME280;61643;49.564;17.412;2022-08-01T08:16:49;98101.78;;;19.64;71.88
73429;BME280;61643;49.564;17.412;2022-08-01T08:19:15;98100.19;;;19.63;72.54
73429;BME280;61643;49.564;17.412;2022-08-01T08:21:41;98101.97;;;19.77;72.04
73429;BME280;61643;49.564;17.412;2022-08-01T08:24:08;98112.59;;;19.78;72.19
73429;BME280;61643;49.564;17.412;2022-08-01T08:26:50;98105.16;;;19.79;71.22
73429;BME280;61643;49.564;17.412;2022-08-01T08:29:16;98099.09;;;19.82;72.24
73429;BME280;61643;49.564;17.412;2022-08-01T08:31:42;98105.03;;;19.84;72.50
73429;BME280;61643;49.564;17.412;2022-08-01T08:34:08;98106.47;;;19.81;72.11
73429;BME280;61643;49.564;17.412;2022-08-01T08:36:33;98107.47;;;19.85;72.25
73429;BME280;61643;49.564;17.412;2022-08-01T08:38:59;98118.38;;;19.94;71.88
73429;BME280;61643;49.564;17.412;2022-08-01T08:41:31;98112.44;;;20.00;72.03
73429;BME280;61643;49.564;17.412;2022-08-01T08:43:57;98112.44;;;20.09;71.65
73429;BME280;61643;49.564;17.412;2022-08-01T08:46:26;98119.19;;;20.11;71.67
73429;BME280;61643;49.564;17.412;2022-08-01T08:48:52;98111.81;;;20.12;71.33
73429;BME280;61643;49.564;17.412;2022-08-01T08:51:18;98125.34;;;20.26;70.89
73429;BME280;61643;49.564;17.412;2022-08-01T08:53:46;98118.72;;;20.09;70.73
73429;BME280;61643;49.564;17.412;2022-08-01T08:56:13;98120.38;;;20.28;70.75
73429;BME280;61643;49.564;17.412;2022-08-01T08:58:41;98122.44;;;20.31;70.71
73429;BME280;61643;49.564;17.412;2022-08-01T09:01:08;98108.75;;;20.48;70.16
73429;BME280;61643;49.564;17.412;2022-08-01T09:03:34;98115.03;;;20.57;69.88
73429;BME280;61643;49.564;17.412;2022-08-01T09:06:00;98117.13;;;20.69;69.86
73429;BME280;61643;49.564;17.412;2022-08-01T09:08:25;98121.78;;;20.68;67.68
73429;BME280;61643;49.564;17.412;2022-08-01T09:10:51;98115.16;;;20.78;68.18
73429;BME280;61643;49.564;17.412;2022-08-01T09:13:16;98115.94;;;20.87;68.07
73429;BME280;61643;49.564;17.412;2022-08-01T09:15:46;98120.09;;;21.01;67.74
73429;BME280;61643;49.564;17.412;2022-08-01T09:18:31;98123.44;;;21.07;69.09
73429;BME280;61643;49.564;17.412;2022-08-01T09:26:14;98124.03;;;21.30;67.61
73429;BME280;61643;49.564;17.412;2022-08-01T09:28:41;98125.38;;;21.53;67.93
73429;BME280;61643;49.564;17.412;2022-08-01T09:31:09;98122.44;;;21.58;64.83
73429;BME280;61643;49.564;17.412;2022-08-01T09:36:17;98125.91;;;21.76;63.67
73429;BME280;61643;49.564;17.412;2022-08-01T09:38:43;98122.63;;;21.82;63.73
73429;BME280;61643;49.564;17.412;2022-08-01T09:41:09;98117.41;;;21.98;64.76
73429;BME280;61643;49.564;17.412;2022-08-01T09:43:37;98117.81;;;22.08;64.13
73429;BME280;61643;49.564;17.412;2022-08-01T09:46:11;98123.44;;;22.12;62.45
73429;BME280;61643;49.564;17.412;2022-08-01T09:48:37;98120.16;;;22.19;65.72
73429;BME280;61643;49.564;17.412;2022-08-01T09:51:05;98122.63;;;22.12;63.24
73429;BME280;61643;49.564;17.412;2022-08-01T09:54:00;98119.34;;;22.18;62.39
73429;BME280;61643;49.564;17.412;2022-08-01T09:56:25;98115.28;;;22.24;62.38
73429;BME280;61643;49.564;17.412;2022-08-01T09:58:56;98118.28;;;22.31;62.65
73429;BME280;61643;49.564;17.412;2022-08-01T10:01:23;98123.22;;;22.38;62.06
73429;BME280;61643;49.564;17.412;2022-08-01T10:04:10;98123.28;;;22.50;62.45
73429;BME280;61643;49.564;17.412;2022-08-01T10:06:37;98122.47;;;22.49;60.56
73429;BME280;61643;49.564;17.412;2022-08-01T10:09:03;98122.47;;;22.49;60.85
73429;BME280;61643;49.564;17.412;2022-08-01T10:11:28;98119.75;;;22.49;60.74
73429;BME280;61643;49.564;17.412;2022-08-01T10:13:56;98120.81;;;22.57;61.36
73429;BME280;61643;49.564;17.412;2022-08-01T10:16:26;98125.34;;;22.53;61.10
73429;BME280;61643;49.564;17.412;2022-08-01T10:18:53;98116.31;;;22.52;61.16
73429;BME280;61643;49.564;17.412;2022-08-01T10:21:19;98108.91;;;22.53;61.46
73429;BME280;61643;49.564;17.412;2022-08-01T10:23:46;98118.06;;;22.57;62.23
73429;BME280;61643;49.564;17.412;2022-08-01T10:26:11;98118.97;;;22.61;61.27
73429;BME280;61643;49.564;17.412;2022-08-01T10:28:38;98119.91;;;22.65;61.87
73429;BME280;61643;49.564;17.412;2022-08-01T10:31:04;98118.75;;;22.66;60.74
73429;BME280;61643;49.564;17.412;2022-08-01T10:33:31;98118.59;;;22.71;59.97
73429;BME280;61643;49.564;17.412;2022-08-01T10:35:57;98114.94;;;22.79;60.32
73429;BME280;61643;49.564;17.412;2022-08-01T10:38:23;98114.16;;;22.79;59.42
73429;BME280;61643;49.564;17.412;2022-08-01T10:40:49;98104.69;;;22.88;58.96
73429;BME280;61643;49.564;17.412;2022-08-01T10:43:16;98111.09;;;22.92;56.39
73429;BME280;61643;49.564;17.412;2022-08-01T10:45:44;98102.63;;;22.97;57.20
73429;BME280;61643;49.564;17.412;2022-08-01T10:48:29;98105.41;;;23.10;59.02
73429;BME280;61643;49.564;17.412;2022-08-01T10:50:59;98111.13;;;23.17;57.14
73429;BME280;61643;49.564;17.412;2022-08-01T10:53:26;98108.31;;;23.25;56.91
73429;BME280;61643;49.564;17.412;2022-08-01T10:56:03;98100.75;;;23.34;58.37
73429;BME280;61643;49.564;17.412;2022-08-01T10:58:34;98112.41;;;23.31;54.24
73429;BME280;61643;49.564;17.412;2022-08-01T11:01:25;98104.09;;;23.40;55.38
73429;BME280;61643;49.564;17.412;2022-08-01T11:09:01;98101.81;;;23.54;57.02
73429;BME280;61643;49.564;17.412;2022-08-01T11:11:27;98101.47;;;23.56;55.18
73429;BME280;61643;49.564;17.412;2022-08-01T11:16:31;98098.16;;;23.62;54.58
73429;BME280;61643;49.564;17.412;2022-08-01T11:18:57;98099.75;;;23.63;55.05
73429;BME280;61643;49.564;17.412;2022-08-01T11:29:43;98105.22;;;23.63;56.09
73429;BME280;61643;49.564;17.412;2022-08-01T11:32:23;98110.84;;;23.67;55.83
73429;BME280;61643;49.564;17.412;2022-08-01T11:34:55;98110.03;;;23.66;56.65
73429;BME280;61643;49.564;17.412;2022-08-01T11:37:28;98101.56;;;23.59;55.58
73429;BME280;61643;49.564;17.412;2022-08-01T11:40:23;98109.69;;;23.56;55.72
73429;BME280;61643;49.564;17.412;2022-08-01T11:42:50;98114.41;;;23.43;57.04
73429;BME280;61643;49.564;17.412;2022-08-01T11:45:16;98132.91;;;23.34;58.25
73429;BME280;61643;49.564;17.412;2022-08-01T11:47:47;98125.94;;;23.36;61.08
73429;BME280;61643;49.564;17.412;2022-08-01T11:50:45;98122.13;;;23.17;62.23
73429;BME280;61643;49.564;17.412;2022-08-01T11:53:10;98125.97;;;22.91;62.95
73429;BME280;61643;49.564;17.412;2022-08-01T11:55:47;98125.03;;;22.87;64.90
73429;BME280;61643;49.564;17.412;2022-08-01T11:58:14;98118.19;;;22.93;65.74
73429;BME280;61643;49.564;17.412;2022-08-01T12:00:40;98118.00;;;23.11;65.57
73429;BME280;61643;49.564;17.412;2022-08-01T12:03:07;98109.56;;;23.28;65.15
73429;BME280;61643;49.564;17.412;2022-08-01T12:05:34;98106.81;;;23.40;62.54
73429;BME280;61643;49.564;17.412;2022-08-01T12:08:02;98100.31;;;23.44;62.98
73429;BME280;61643;49.564;17.412;2022-08-01T12:10:35;98106.16;;;23.55;63.59
73429;BME280;61643;49.564;17.412;2022-08-01T12:13:06;98104.22;;;23.68;63.29
73429;BME280;61643;49.564;17.412;2022-08-01T12:15:37;98092.19;;;23.72;60.72
73429;BME280;61643;49.564;17.412;2022-08-01T12:18:04;98100.66;;;23.79;60.11
73429;BME280;61643;49.564;17.412;2022-08-01T12:20:32;98088.25;;;23.85;60.87
73429;BME280;61643;49.564;17.412;2022-08-01T12:23:00;98090.78;;;23.90;61.44
73429;BME280;61643;49.564;17.412;2022-08-01T12:25:25;98092.47;;;23.95;60.15
73429;BME280;61643;49.564;17.412;2022-08-01T12:27:51;98089.84;;;23.98;60.08
73429;BME280;61643;49.564;17.412;2022-08-01T12:30:18;98092.34;;;24.03;60.85
73429;BME280;61643;49.564;17.412;2022-08-01T12:32:49;98089.38;;;24.09;60.20
73429;BME280;61643;49.564;17.412;2022-08-01T12:35:20;98076.31;;;24.18;59.74
73429;BME280;61643;49.564;17.412;2022-08-01T12:37:50;98075.69;;;24.24;60.46
73429;BME280;61643;49.564;17.412;2022-08-01T12:40:17;98073.94;;;24.32;59.78
73429;BME280;61643;49.564;17.412;2022-08-01T12:42:44;98070.25;;;24.40;60.01
73429;BME280;61643;49.564;17.412;2022-08-01T12:45:13;98075.25;;;24.50;58.55
73429;BME280;61643;49.564;17.412;2022-08-01T12:47:39;98073.06;;;24.56;57.14
73429;BME280;61643;49.564;17.412;2022-08-01T12:50:08;98064.84;;;24.43;57.11
73429;BME280;61643;49.564;17.412;2022-08-01T12:52:34;98070.28;;;24.28;58.08
73429;BME280;61643;49.564;17.412;2022-08-01T12:55:05;98076.06;;;24.23;58.37
73429;BME280;61643;49.564;17.412;2022-08-01T12:57:32;98082.81;;;24.25;57.46
73429;BME280;61643;49.564;17.412;2022-08-01T13:02:35;98078.28;;;24.45;57.16
73429;BME280;61643;49.564;17.412;2022-08-01T13:05:01;98079.16;;;24.49;56.83
73429;BME280;61643;49.564;17.412;2022-08-01T13:07:46;98078.09;;;24.54;58.13
73429;BME280;61643;49.564;17.412;2022-08-01T13:10:13;98080.53;;;24.55;56.71
73429;BME280;61643;49.564;17.412;2022-08-01T13:12:40;98080.31;;;24.48;56.85
73429;BME280;61643;49.564;17.412;2022-08-01T13:15:20;98080.03;;;24.37;57.37
73429;BME280;61643;49.564;17.412;2022-08-01T13:17:46;98083.63;;;24.26;56.21
73429;BME280;61643;49.564;17.412;2022-08-01T13:20:41;98077.91;;;24.19;56.73
73429;BME280;61643;49.564;17.412;2022-08-01T13:23:14;98086.88;;;24.16;57.56
73429;BME280;61643;49.564;17.412;2022-08-01T13:25:54;98084.56;;;24.18;59.10
73429;BME280;61643;49.564;17.412;2022-08-01T13:28:26;98087.97;;;24.27;58.38